createdAt,value
2023-02-25T00:01:34.394Z,99742.00
2023-02-25T00:04:01.213Z,99734.59
2023-02-25T00:06:27.865Z,99744.44
2023-02-25T00:08:54.922Z,99748.22
2023-02-25T00:11:22.830Z,99756.09
2023-02-25T00:13:49.507Z,99750.88
2023-02-25T00:16:16.927Z,99744.78
2023-02-25T00:18:46.922Z,99739.38
2023-02-25T00:21:15.895Z,99731.84
2023-02-25T00:23:47.635Z,99709.72
2023-02-25T00:26:15.192Z,99751.81
2023-02-25T00:28:42.209Z,99750.72
2023-02-25T00:31:10.935Z,99736.53
2023-02-25T00:33:41.758Z,99728.88
2023-02-25T00:36:10.341Z,99735.38
2023-02-25T00:38:36.859Z,99741.94
2023-02-25T00:41:15.084Z,99724.78
2023-02-25T00:43:43.407Z,99749.59
2023-02-25T00:46:10.913Z,99732.88
2023-02-25T00:48:37.730Z,99721.50
2023-02-25T00:51:17.672Z,99739.16
2023-02-25T00:53:44.498Z,99749.47
2023-02-25T00:56:15.912Z,99744.31
2023-02-25T00:58:43.774Z,99752.56
2023-02-25T01:01:29.012Z,99766.13
2023-02-25T01:03:56.916Z,99755.31
2023-02-25T01:06:25.562Z,99756.06
2023-02-25T01:08:54.079Z,99705.91
2023-02-25T01:11:27.082Z,99747.16
2023-02-25T01:13:54.622Z,99756.63
2023-02-25T01:16:24.308Z,99733.06
2023-02-25T01:18:56.191Z,99723.63
2023-02-25T01:21:27.578Z,99761.16
2023-02-25T01:24:00.469Z,99746.59
2023-02-25T01:26:28.987Z,99757.66
2023-02-25T01:28:55.889Z,99758.16
2023-02-25T01:31:29.343Z,99753.31
2023-02-25T01:34:00.459Z,99759.91
2023-02-25T01:36:28.228Z,99760.56
2023-02-25T01:38:56.042Z,99747.16
2023-02-25T01:41:27.087Z,99737.63
2023-02-25T01:44:14.632Z,99766.88
2023-02-25T01:46:43.792Z,99743.28
2023-02-25T01:49:20.352Z,99743.69
2023-02-25T01:51:49.579Z,99732.00
2023-02-25T01:54:16.440Z,99734.84
2023-02-25T01:56:48.223Z,99756.31
2023-02-25T01:59:15.702Z,99756.31
2023-02-25T02:01:42.718Z,99722.53
2023-02-25T02:04:12.136Z,99761.44
2023-02-25T02:06:44.164Z,99761.03
2023-02-25T02:09:16.757Z,99756.22
2023-02-25T02:11:43.358Z,99704.44
2023-02-25T02:14:13.463Z,99717.81
2023-02-25T02:17:06.990Z,99745.84
2023-02-25T02:19:41.966Z,99763.25
2023-02-25T02:22:13.021Z,99759.41
2023-02-25T02:24:58.873Z,99761.78
2023-02-25T02:28:02.482Z,99749.56
2023-02-25T02:30:47.899Z,99749.81
2023-02-25T02:33:38.671Z,99742.97
2023-02-25T02:36:18.644Z,99742.81
2023-02-25T02:38:53.028Z,99743.63
2023-02-25T02:41:36.693Z,99756.22
2023-02-25T02:44:15.439Z,99751.38
2023-02-25T02:46:51.817Z,99768.66
2023-02-25T02:49:24.405Z,99718.06
2023-02-25T02:51:57.193Z,99748.88
2023-02-25T02:54:25.701Z,99715.34
2023-02-25T02:56:54.224Z,99761.06
2023-02-25T02:59:25.638Z,99762.44
2023-02-25T03:02:04.329Z,99770.53
2023-02-25T03:04:34.869Z,99770.50
2023-02-25T03:07:07.576Z,99766.75
2023-02-25T03:09:38.329Z,99778.59
2023-02-25T03:12:05.007Z,99736.03
2023-02-25T03:14:31.474Z,99768.44
2023-02-25T03:17:06.705Z,99747.28
2023-02-25T03:19:40.481Z,99779.94
2023-02-25T03:22:10.603Z,99777.47
2023-02-25T03:24:45.607Z,99785.25
2023-02-25T03:27:28.512Z,99784.56
2023-02-25T03:30:02.202Z,99777.09
2023-02-25T03:32:29.792Z,99768.19
2023-02-25T03:34:58.068Z,99773.78
2023-02-25T03:37:29.678Z,99738.69
2023-02-25T03:39:59.710Z,99766.69
2023-02-25T03:42:33.068Z,99750.94
2023-02-25T03:45:03.889Z,99780.72
2023-02-25T03:47:32.967Z,99786.09
2023-02-25T03:50:05.878Z,99718.84
2023-02-25T03:52:32.476Z,99767.03
2023-02-25T03:54:59.019Z,99772.09
2023-02-25T03:57:34.734Z,99775.78
2023-02-25T04:00:01.349Z,99758.69
2023-02-25T04:02:31.357Z,99762.84
2023-02-25T04:04:58.541Z,99772.19
2023-02-25T04:07:25.147Z,99758.31
2023-02-25T04:09:51.588Z,99777.66
2023-02-25T04:12:18.040Z,99759.88
2023-02-25T04:14:44.631Z,99808.19
2023-02-25T04:17:13.082Z,99773.44
2023-02-25T04:19:39.645Z,99780.41
2023-02-25T04:22:08.055Z,99800.53
2023-02-25T04:24:34.554Z,99770.28
2023-02-25T04:27:01.787Z,99786.28
2023-02-25T04:29:29.193Z,99777.22
2023-02-25T04:31:56.021Z,99796.84
2023-02-25T04:34:23.217Z,99795.97
2023-02-25T04:36:49.997Z,99813.69
2023-02-25T04:39:18.052Z,99813.59
2023-02-25T04:41:45.024Z,99817.22
2023-02-25T04:44:11.772Z,99810.81
2023-02-25T04:46:41.929Z,99823.13
2023-02-25T04:49:09.718Z,99821.22
2023-02-25T04:51:38.289Z,99820.06
2023-02-25T04:54:05.162Z,99809.44
2023-02-25T04:56:31.686Z,99802.28
2023-02-25T04:58:58.462Z,99813.09
2023-02-25T05:01:24.950Z,99808.94
2023-02-25T05:03:56.707Z,99813.19
2023-02-25T05:06:24.828Z,99824.66
2023-02-25T05:08:51.512Z,99816.19
2023-02-25T05:11:18.926Z,99823.53
2023-02-25T05:13:45.852Z,99814.53
2023-02-25T05:16:16.623Z,99799.91
2023-02-25T05:18:44.973Z,99803.66
2023-02-25T05:21:16.508Z,99814.69
2023-02-25T05:23:44.441Z,99817.31
2023-02-25T05:26:11.765Z,99822.06
2023-02-25T05:28:38.520Z,99812.38
2023-02-25T05:31:10.512Z,99724.25
2023-02-25T05:33:38.541Z,99801.03
2023-02-25T05:36:06.995Z,99814.59
2023-02-25T05:38:33.879Z,99811.06
2023-02-25T05:41:00.998Z,99790.47
2023-02-25T05:43:27.494Z,99767.78
2023-02-25T05:45:57.990Z,99813.63
2023-02-25T05:48:24.636Z,99792.06
2023-02-25T05:50:52.017Z,99803.53
2023-02-25T05:53:19.453Z,99811.91
2023-02-25T05:55:46.577Z,99780.06
2023-02-25T05:58:13.451Z,99810.38
2023-02-25T06:00:39.945Z,99803.66
2023-02-25T06:03:06.794Z,99803.88
2023-02-25T06:05:33.311Z,99823.06
2023-02-25T06:08:00.006Z,99832.66
2023-02-25T06:10:27.102Z,99810.91
2023-02-25T06:12:53.651Z,99806.38
2023-02-25T06:15:20.133Z,99843.19
2023-02-25T06:17:46.588Z,99840.72
2023-02-25T06:20:16.470Z,99825.16
2023-02-25T06:22:43.482Z,99834.56
2023-02-25T06:25:10.265Z,99826.44
2023-02-25T06:27:36.802Z,99847.72
2023-02-25T06:30:04.314Z,99823.19
2023-02-25T06:32:30.930Z,99851.91
2023-02-25T06:34:57.534Z,99803.63
2023-02-25T06:37:24.046Z,99854.94
2023-02-25T06:39:52.555Z,99848.47
2023-02-25T06:42:19.448Z,99851.81
2023-02-25T06:44:46.105Z,99860.53
2023-02-25T06:47:12.658Z,99855.03
2023-02-25T06:49:39.377Z,99877.16
2023-02-25T06:52:06.125Z,99884.28
2023-02-25T06:54:32.801Z,99891.19
2023-02-25T06:57:00.720Z,99876.00
2023-02-25T06:59:27.437Z,99892.78
2023-02-25T07:01:54.062Z,99881.53
2023-02-25T07:04:20.662Z,99908.50
2023-02-25T07:06:47.441Z,99889.91
2023-02-25T07:09:13.931Z,99871.91
2023-02-25T07:11:40.522Z,99894.91
2023-02-25T07:14:07.105Z,99878.69
2023-02-25T07:16:34.642Z,99903.06
2023-02-25T07:19:02.372Z,99917.19
2023-02-25T07:21:30.999Z,99887.06
2023-02-25T07:23:58.385Z,99920.56
2023-02-25T07:26:28.334Z,99917.59
2023-02-25T07:28:59.606Z,99927.03
2023-02-25T07:31:27.966Z,99895.94
2023-02-25T07:33:55.085Z,99886.69
2023-02-25T07:36:21.785Z,99935.81
2023-02-25T07:38:51.132Z,99942.28
2023-02-25T07:41:19.413Z,99952.72
2023-02-25T07:43:46.311Z,99964.34
2023-02-25T07:46:15.771Z,99928.28
2023-02-25T07:48:42.481Z,99983.91
2023-02-25T07:51:15.551Z,99988.53
2023-02-25T07:53:42.031Z,99988.41
2023-02-25T07:56:09.233Z,99979.56
2023-02-25T07:58:36.802Z,99956.66
2023-02-25T08:01:10.004Z,99961.13
2023-02-25T08:03:36.901Z,99959.13
2023-02-25T08:06:07.843Z,99954.94
2023-02-25T08:08:35.672Z,99942.81
2023-02-25T08:11:10.633Z,99950.91
2023-02-25T08:13:37.759Z,99980.63
2023-02-25T08:16:05.983Z,99984.56
2023-02-25T08:18:32.588Z,99972.38
2023-02-25T08:21:01.369Z,99964.22
2023-02-25T08:23:29.189Z,99972.53
2023-02-25T08:25:56.712Z,99976.06
2023-02-25T08:28:25.027Z,99981.84
2023-02-25T08:30:51.930Z,99986.84
2023-02-25T08:33:18.620Z,99974.50
2023-02-25T08:35:45.226Z,99957.69
2023-02-25T08:38:12.866Z,99976.13
2023-02-25T08:40:40.215Z,99975.38
2023-02-25T08:43:07.587Z,99985.31
2023-02-25T08:45:34.849Z,99991.91
2023-02-25T08:48:01.320Z,99996.06
2023-02-25T08:50:27.969Z,99961.88
2023-02-25T08:52:54.581Z,99969.41
2023-02-25T08:55:24.666Z,99998.75
2023-02-25T08:57:52.564Z,100003.09
2023-02-25T09:00:21.107Z,100003.53
2023-02-25T09:02:48.118Z,100001.09
2023-02-25T09:05:14.579Z,100013.88
2023-02-25T09:07:41.101Z,99990.13
2023-02-25T09:10:09.202Z,99984.91
2023-02-25T09:12:38.154Z,99992.56
2023-02-25T09:15:05.478Z,100017.94
2023-02-25T09:17:32.119Z,100005.72
2023-02-25T09:20:01.217Z,100033.81
2023-02-25T09:22:28.465Z,100026.88
2023-02-25T09:24:55.746Z,99999.50
2023-02-25T09:27:22.386Z,100023.28
2023-02-25T09:29:48.994Z,100009.91
2023-02-25T09:32:19.680Z,100021.63
2023-02-25T09:34:49.046Z,100025.44
2023-02-25T09:37:16.850Z,100026.44
2023-02-25T09:39:43.617Z,100034.97
2023-02-25T09:42:14.321Z,100028.75
2023-02-25T09:45:00.929Z,100047.81
2023-02-25T09:47:27.489Z,100043.84
2023-02-25T09:49:59.465Z,100015.72
2023-02-25T09:52:43.585Z,100034.53
2023-02-25T09:55:35.977Z,100045.41
2023-02-25T09:58:11.565Z,100055.31
2023-02-25T10:00:46.175Z,100043.28
2023-02-25T10:03:38.416Z,100060.19
2023-02-25T10:06:27.688Z,100063.38
2023-02-25T10:09:10.135Z,100046.38
2023-02-25T10:11:39.610Z,100046.69
2023-02-25T10:14:06.345Z,100058.31
2023-02-25T10:16:40.043Z,100066.84
2023-02-25T10:19:28.736Z,100083.25
2023-02-25T10:22:20.186Z,100087.56
2023-02-25T10:24:50.396Z,100092.03
2023-02-25T10:27:19.503Z,100098.25
2023-02-25T10:29:49.766Z,100097.94
2023-02-25T10:32:21.229Z,100066.28
2023-02-25T10:34:49.373Z,100101.59
2023-02-25T10:37:21.188Z,100099.97
2023-02-25T10:39:48.665Z,100124.47
2023-02-25T10:42:16.389Z,100130.06
2023-02-25T10:44:44.668Z,100127.41
2023-02-25T10:47:15.691Z,100144.41
2023-02-25T10:50:27.610Z,100143.75
2023-02-25T10:53:05.583Z,100149.88
2023-02-25T10:55:44.394Z,100153.66
2023-02-25T10:58:28.425Z,100137.34
2023-02-25T11:00:59.598Z,100134.59
2023-02-25T11:03:29.508Z,100142.59
2023-02-25T11:06:35.628Z,100136.88
2023-02-25T11:09:27.064Z,100143.75
2023-02-25T11:12:19.818Z,100150.72
2023-02-25T11:14:46.624Z,100133.50
2023-02-25T11:17:20.154Z,100138.69
2023-02-25T11:19:47.482Z,100143.97
2023-02-25T11:22:29.642Z,100131.78
2023-02-25T11:24:59.691Z,100135.63
2023-02-25T11:27:33.761Z,100133.00
2023-02-25T11:30:07.966Z,100140.81
2023-02-25T11:32:34.942Z,100153.19
2023-02-25T11:35:10.300Z,100104.63
2023-02-25T11:37:49.522Z,100148.97
2023-02-25T11:40:22.702Z,100141.72
2023-02-25T11:43:18.611Z,100146.31
2023-02-25T11:45:57.610Z,100130.53
2023-02-25T11:48:30.089Z,100140.97
2023-02-25T11:51:29.248Z,100152.31
2023-02-25T11:54:11.283Z,100154.94
2023-02-25T11:56:48.646Z,100173.72
2023-02-25T11:59:31.773Z,100147.78
2023-02-25T12:02:27.650Z,100156.75
2023-02-25T12:05:16.715Z,100146.31
2023-02-25T12:08:13.334Z,100176.22
2023-02-25T12:11:05.399Z,100178.50
2023-02-25T12:14:02.707Z,100160.91
2023-02-25T12:16:38.330Z,100165.88
2023-02-25T12:19:14.153Z,100161.13
2023-02-25T12:22:14.721Z,100176.66
2023-02-25T12:24:41.172Z,100166.16
2023-02-25T12:27:38.771Z,100194.53
2023-02-25T12:30:31.512Z,100201.44
2023-02-25T12:33:11.874Z,100146.81
2023-02-25T12:36:03.844Z,100173.34
2023-02-25T12:38:37.546Z,100178.88
2023-02-25T12:41:22.979Z,100179.31
2023-02-25T12:44:31.552Z,100191.44
2023-02-25T12:47:17.606Z,100193.72
2023-02-25T12:50:09.199Z,100189.88
2023-02-25T12:52:51.493Z,100168.13
2023-02-25T12:55:35.506Z,100131.59
2023-02-25T12:58:29.217Z,100184.50
2023-02-25T13:01:13.962Z,100198.31
2023-02-25T13:03:58.837Z,100195.50
2023-02-25T13:06:56.985Z,100211.16
2023-02-25T13:09:44.746Z,100212.03
2023-02-25T13:12:23.135Z,100226.88
2023-02-25T13:15:08.948Z,100216.53
2023-02-25T13:17:46.320Z,100222.56
2023-02-25T13:20:31.260Z,100224.25
2023-02-25T13:23:06.596Z,100216.50
2023-02-25T13:25:46.849Z,100229.72
2023-02-25T13:28:42.857Z,100227.00
2023-02-25T13:31:19.203Z,100232.50
2023-02-25T13:33:57.901Z,100233.59
2023-02-25T13:37:00.030Z,100232.78
2023-02-25T13:39:44.593Z,100181.34
2023-02-25T13:42:32.531Z,100241.97
2023-02-25T13:45:22.814Z,100239.44
2023-02-25T13:48:17.368Z,100248.53
2023-02-25T13:50:44.187Z,100245.66
2023-02-25T13:53:23.750Z,100246.00
2023-02-25T13:56:18.351Z,100240.75
2023-02-25T13:59:21.982Z,100247.81
2023-02-25T14:02:18.784Z,100260.91
2023-02-25T14:05:09.106Z,100265.34
2023-02-25T14:07:55.330Z,100205.09
2023-02-25T14:10:29.239Z,100262.31
2023-02-25T14:13:09.794Z,100261.50
2023-02-25T14:15:51.751Z,100260.75
2023-02-25T14:18:31.091Z,100275.06
2023-02-25T14:21:28.074Z,100275.63
2023-02-25T14:24:06.633Z,100283.91
2023-02-25T14:26:44.236Z,100283.44
2023-02-25T14:29:35.649Z,100292.22
2023-02-25T14:32:41.353Z,100277.63
2023-02-25T14:35:35.670Z,100303.06
2023-02-25T14:38:04.983Z,100296.78
2023-02-25T14:40:44.174Z,100296.16
2023-02-25T14:43:36.169Z,100298.25
2023-02-25T14:46:33.627Z,100309.06
2023-02-25T14:49:06.100Z,100313.88
2023-02-25T14:51:59.377Z,100296.47
2023-02-25T14:54:53.863Z,100321.97
2023-02-25T14:57:46.135Z,100327.03
2023-02-25T15:00:37.556Z,100334.38
2023-02-25T15:03:22.367Z,100324.84
2023-02-25T15:06:13.271Z,100330.41
2023-02-25T15:09:23.552Z,100331.53
2023-02-25T15:12:08.806Z,100333.78
2023-02-25T15:14:53.642Z,100334.06
2023-02-25T15:17:48.123Z,100338.63
2023-02-25T15:20:47.522Z,100315.22
2023-02-25T15:23:16.482Z,100344.44
2023-02-25T15:26:03.641Z,100318.22
2023-02-25T15:28:30.460Z,100363.00
2023-02-25T15:31:00.378Z,100370.88
2023-02-25T15:33:27.359Z,100364.22
2023-02-25T15:35:57.418Z,100364.22
2023-02-25T15:38:50.190Z,100380.38
2023-02-25T15:41:28.822Z,100375.06
2023-02-25T15:44:00.132Z,100355.44
2023-02-25T15:46:35.861Z,100388.59
2023-02-25T15:49:10.300Z,100394.84
2023-02-25T15:51:58.179Z,100392.38
2023-02-25T15:54:27.729Z,100399.13
2023-02-25T15:57:01.165Z,100399.13
2023-02-25T15:59:47.529Z,100392.13
2023-02-25T16:02:29.153Z,100412.03
2023-02-25T16:05:20.580Z,100416.31
2023-02-25T16:07:50.319Z,100407.72
2023-02-25T16:10:23.580Z,100422.19
2023-02-25T16:12:53.765Z,100425.28
2023-02-25T16:15:35.167Z,100430.41
2023-02-25T16:18:15.968Z,100423.97
2023-02-25T16:20:47.230Z,100376.66
2023-02-25T16:23:15.154Z,100409.84
2023-02-25T16:26:05.580Z,100414.91
2023-02-25T16:29:02.735Z,100432.94
2023-02-25T16:32:07.243Z,100446.63
2023-02-25T16:34:41.540Z,100456.94
2023-02-25T16:37:22.986Z,100453.53
2023-02-25T16:39:49.759Z,100460.75
2023-02-25T16:42:18.112Z,100454.91
2023-02-25T16:44:47.539Z,100480.66
2023-02-25T16:47:36.640Z,100481.81
2023-02-25T16:50:07.761Z,100489.00
2023-02-25T16:52:38.556Z,100487.00
2023-02-25T16:55:12.310Z,100496.69
2023-02-25T16:57:39.439Z,100487.34
2023-02-25T17:00:06.208Z,100505.75
2023-02-25T17:02:33.601Z,100493.25
2023-02-25T17:05:00.050Z,100486.50
2023-02-25T17:07:28.051Z,100507.38
2023-02-25T17:10:00.797Z,100518.25
2023-02-25T17:12:32.240Z,100520.38
2023-02-25T17:15:00.891Z,100503.41
2023-02-25T17:17:33.075Z,100523.03
2023-02-25T17:20:01.102Z,100528.47
2023-02-25T17:22:27.872Z,100536.97
2023-02-25T17:24:57.081Z,100512.41
2023-02-25T17:27:24.368Z,100543.66
2023-02-25T17:29:51.257Z,100545.25
2023-02-25T17:32:27.187Z,100553.75
2023-02-25T17:34:55.934Z,100556.19
2023-02-25T17:37:23.145Z,100556.97
2023-02-25T17:39:50.183Z,100557.94
2023-02-25T17:42:26.988Z,100571.22
2023-02-25T17:44:53.484Z,100577.06
2023-02-25T17:47:24.416Z,100564.97
2023-02-25T17:49:51.212Z,100577.69
2023-02-25T17:52:23.222Z,100564.72
2023-02-25T17:55:23.824Z,100594.84
2023-02-25T17:57:51.320Z,100579.88
2023-02-25T18:00:18.609Z,100601.88
2023-02-25T18:02:45.401Z,100600.38
2023-02-25T18:05:11.939Z,100604.16
2023-02-25T18:07:43.089Z,100607.72
2023-02-25T18:10:33.334Z,100611.91
2023-02-25T18:13:02.207Z,100595.88
2023-02-25T18:15:33.665Z,100619.81
2023-02-25T18:18:03.639Z,100630.97
2023-02-25T18:20:34.346Z,100621.22
2023-02-25T18:23:15.616Z,100624.41
2023-02-25T18:25:47.951Z,100626.56
2023-02-25T18:28:17.440Z,100613.22
2023-02-25T18:30:44.795Z,100585.50
2023-02-25T18:33:11.809Z,100634.16
2023-02-25T18:35:40.180Z,100639.09
2023-02-25T18:38:07.116Z,100621.28
2023-02-25T18:40:39.411Z,100617.34
2023-02-25T18:43:06.981Z,100634.88
2023-02-25T18:45:34.543Z,100630.97
2023-02-25T18:48:01.705Z,100639.88
2023-02-25T18:50:32.450Z,100623.75
2023-02-25T18:52:59.885Z,100634.28
2023-02-25T18:55:28.762Z,100640.78
2023-02-25T18:57:55.631Z,100602.25
2023-02-25T19:00:23.751Z,100642.28
2023-02-25T19:02:51.304Z,100649.34
2023-02-25T19:05:19.995Z,100644.91
2023-02-25T19:07:46.895Z,100649.44
2023-02-25T19:10:28.618Z,100637.47
2023-02-25T19:13:02.777Z,100651.97
2023-02-25T19:15:30.176Z,100655.59
2023-02-25T19:17:56.898Z,100650.81
2023-02-25T19:20:23.624Z,100642.66
2023-02-25T19:22:52.603Z,100660.66
2023-02-25T19:25:28.341Z,100644.66
2023-02-25T19:27:56.247Z,100628.47
2023-02-25T19:30:31.145Z,100638.19
2023-02-25T19:33:04.406Z,100666.84
2023-02-25T19:35:33.778Z,100649.53
2023-02-25T19:38:00.794Z,100663.13
2023-02-25T19:40:28.998Z,100673.41
2023-02-25T19:42:55.877Z,100671.19
2023-02-25T19:45:24.042Z,100665.34
2023-02-25T19:47:51.230Z,100666.53
2023-02-25T19:50:19.769Z,100644.13
2023-02-25T19:52:46.744Z,100681.03
2023-02-25T19:55:14.430Z,100667.09
2023-02-25T19:57:41.687Z,100683.59
2023-02-25T20:00:11.664Z,100685.09
2023-02-25T20:02:38.585Z,100696.63
2023-02-25T20:05:05.888Z,100674.72
2023-02-25T20:07:32.968Z,100701.91
2023-02-25T20:10:00.475Z,100665.91
2023-02-25T20:12:27.144Z,100707.13
2023-02-25T20:14:53.731Z,100701.66
2023-02-25T20:17:20.312Z,100691.84
2023-02-25T20:19:47.671Z,100697.41
2023-02-25T20:22:14.384Z,100702.28
2023-02-25T20:24:40.902Z,100709.22
2023-02-25T20:27:07.428Z,100712.88
2023-02-25T20:29:34.149Z,100724.25
2023-02-25T20:32:00.846Z,100749.25
2023-02-25T20:34:28.120Z,100768.53
2023-02-25T20:37:11.124Z,100767.06
2023-02-25T20:39:37.570Z,100769.31
2023-02-25T20:42:11.194Z,100745.94
2023-02-25T20:44:38.408Z,100772.75
2023-02-25T20:47:05.913Z,100745.19
2023-02-25T20:49:34.869Z,100778.91
2023-02-25T20:52:01.691Z,100775.53
2023-02-25T20:54:30.793Z,100771.22
2023-02-25T20:56:57.433Z,100764.97
2023-02-25T20:59:23.908Z,100772.84
2023-02-25T21:01:50.457Z,100761.41
2023-02-25T21:04:16.997Z,100772.56
2023-02-25T21:06:43.612Z,100770.59
2023-02-25T21:09:10.326Z,100767.53
2023-02-25T21:11:36.919Z,100750.91
2023-02-25T21:14:03.682Z,100757.34
2023-02-25T21:16:32.253Z,100766.78
2023-02-25T21:18:59.027Z,100769.84
2023-02-25T21:21:26.821Z,100774.53
2023-02-25T21:23:53.528Z,100752.31
2023-02-25T21:26:20.128Z,100774.00
2023-02-25T21:28:46.683Z,100735.88
2023-02-25T21:31:15.453Z,100757.84
2023-02-25T21:33:42.353Z,100774.66
2023-02-25T21:36:10.312Z,100788.59
2023-02-25T21:38:38.971Z,100783.81
2023-02-25T21:41:11.420Z,100759.84
2023-02-25T21:43:38.783Z,100786.63
2023-02-25T21:46:07.719Z,100788.28
2023-02-25T21:48:34.547Z,100773.06
2023-02-25T21:51:01.330Z,100776.91
2023-02-25T21:53:28.335Z,100768.22
2023-02-25T21:55:55.800Z,100786.47
2023-02-25T21:58:23.006Z,100771.78
2023-02-25T22:00:50.342Z,100792.50
2023-02-25T22:03:17.156Z,100799.38
2023-02-25T22:05:45.850Z,100795.06
2023-02-25T22:08:13.214Z,100816.09
2023-02-25T22:10:40.848Z,100804.88
2023-02-25T22:13:08.428Z,100814.78
2023-02-25T22:15:35.454Z,100781.56
2023-02-25T22:18:02.074Z,100792.13
2023-02-25T22:20:28.939Z,100810.03
2023-02-25T22:22:57.971Z,100798.38
2023-02-25T22:25:24.520Z,100790.81
2023-02-25T22:27:52.078Z,100802.69
2023-02-25T22:30:18.912Z,100813.97
2023-02-25T22:32:45.665Z,100812.00
2023-02-25T22:35:12.282Z,100794.66
2023-02-25T22:37:38.842Z,100800.31
2023-02-25T22:40:06.161Z,100794.06
2023-02-25T22:42:32.743Z,100815.56
2023-02-25T22:44:59.221Z,100818.56
2023-02-25T22:47:25.910Z,100808.97
2023-02-25T22:49:52.483Z,100793.13
2023-02-25T22:52:19.082Z,100802.91
2023-02-25T22:54:46.084Z,100797.53
2023-02-25T22:57:12.986Z,100834.88
2023-02-25T22:59:39.551Z,100782.56
2023-02-25T23:02:06.111Z,100829.28
2023-02-25T23:04:33.348Z,100833.78
2023-02-25T23:07:01.049Z,100805.78
2023-02-25T23:09:28.008Z,100815.69
2023-02-25T23:11:55.159Z,100820.41
2023-02-25T23:14:22.000Z,100841.81
2023-02-25T23:16:48.587Z,100821.78
2023-02-25T23:19:17.983Z,100839.47
2023-02-25T23:21:44.639Z,100854.34
2023-02-25T23:24:16.216Z,100857.66
2023-02-25T23:26:43.704Z,100865.56
2023-02-25T23:29:11.700Z,100835.72
2023-02-25T23:31:43.056Z,100843.66
2023-02-25T23:34:12.894Z,100854.88
2023-02-25T23:36:41.244Z,100861.06
2023-02-25T23:39:08.572Z,100871.00
2023-02-25T23:41:36.166Z,100871.59
2023-02-25T23:44:03.590Z,100832.91
2023-02-25T23:46:32.100Z,100874.06
2023-02-25T23:49:01.382Z,100873.72
2023-02-25T23:51:28.667Z,100867.88
2023-02-25T23:53:56.699Z,100879.50
2023-02-25T23:56:24.206Z,100884.38
2023-02-25T23:58:53.661Z,100887.41
